Pagina principale
METAR-TAF:

METAR-TAF

Aeroporti :

Meiringen, Svizzera

latitudine: 46-44-25N, longitudine: 8-06-36E, altezza: 577 m

Osservazione

Il bollettino è stato emesso 17 minuti fa, alle 12:50 UTC
Vento 13 kt da ovest/nord-ovest con raffiche fino a 23 kt, variando fra ovest/sud-ovest e nord-ovest
Temperature 10°C
Umidità 57%
Pressione 1003 hPa
Visibilità 10 km o più
Poco nuvoloso ad un'altezza di 3100 ft
Nuvoloso ad un'altezza di 5400 ft
rovesci di pioggia

METAR: LSMM 161250Z AUTO 29013G23KT 250V320 9999NDV -SHRA FEW031 BKN054 10/02 Q1003 RMK

Ora: 14:07 (13:07 UTC)


TAF: mancante

Osservazioni e previsioni meteorologiche di più di 4000 aeroporti (messaggi METAR e TAF).

Le stazioni disponibili sono rappresentate dai dischi gialli e rossi sulla carta.

Puntare il mouse per vedere il nome della stazione.

Clicca sopra per visualizzare le osservazioni e previsioni meteorologiche.

Per cambiare la mappa : fare clic sui pulsanti verdi con una croce nera per ingrandire, il pulsante verde con un trattino per diminuire, o sulla freccia verde per le mappe adiacenti.


METAR-TAF: